createdAt,value
2023-03-06T00:00:42.042Z,2.38
2023-03-06T00:03:09.234Z,2.33
2023-03-06T00:05:36.326Z,2.26
2023-03-06T00:08:03.853Z,2.32
2023-03-06T00:10:31.606Z,2.28
2023-03-06T00:13:00.969Z,2.20
2023-03-06T00:15:28.930Z,2.19
2023-03-06T00:17:56.222Z,2.24
2023-03-06T00:20:24.123Z,2.22
2023-03-06T00:22:51.416Z,2.27
2023-03-06T00:25:20.786Z,2.31
2023-03-06T00:27:48.668Z,2.38
2023-03-06T00:30:19.049Z,2.41
2023-03-06T00:32:46.350Z,2.40
2023-03-06T00:35:14.375Z,2.43
2023-03-06T00:37:44.004Z,2.39
2023-03-06T00:40:14.114Z,2.48
2023-03-06T00:42:41.281Z,2.44
2023-03-06T00:45:09.863Z,2.37
2023-03-06T00:47:37.154Z,2.30
2023-03-06T00:50:05.232Z,2.36
2023-03-06T00:52:32.725Z,2.34
2023-03-06T00:54:59.844Z,2.21
2023-03-06T00:57:27.056Z,2.16
2023-03-06T00:59:54.188Z,2.11
2023-03-06T01:02:21.670Z,2.04
2023-03-06T01:04:48.836Z,1.95
2023-03-06T01:07:15.703Z,2.05
2023-03-06T01:09:42.862Z,2.00
2023-03-06T01:12:09.977Z,2.00
2023-03-06T01:14:37.205Z,1.93
2023-03-06T01:17:04.463Z,1.89
2023-03-06T01:19:31.530Z,1.84
2023-03-06T01:21:58.608Z,1.88
2023-03-06T01:24:26.161Z,1.82
2023-03-06T01:26:56.643Z,1.79
2023-03-06T01:29:23.837Z,1.80
2023-03-06T01:31:50.710Z,1.85
2023-03-06T01:34:18.214Z,1.88
2023-03-06T01:36:45.549Z,1.92
2023-03-06T01:39:12.448Z,1.94
2023-03-06T01:41:39.594Z,1.99
2023-03-06T01:44:06.402Z,2.07
2023-03-06T01:46:43.959Z,2.18
2023-03-06T01:49:26.476Z,2.25
2023-03-06T01:52:07.744Z,2.36
2023-03-06T01:54:37.702Z,2.42
2023-03-06T01:57:13.401Z,2.54
2023-03-06T01:59:42.842Z,2.58
2023-03-06T02:02:11.734Z,2.65
2023-03-06T02:04:40.843Z,2.75
2023-03-06T02:07:08.703Z,2.79
2023-03-06T02:09:37.292Z,2.82
2023-03-06T02:12:09.611Z,2.89
2023-03-06T02:14:37.304Z,2.90
2023-03-06T02:17:05.943Z,2.92
2023-03-06T02:19:40.884Z,2.96
2023-03-06T02:22:08.181Z,2.91
2023-03-06T02:24:45.711Z,3.00
2023-03-06T02:27:14.706Z,3.01
2023-03-06T02:29:42.966Z,3.08
2023-03-06T02:32:11.203Z,3.03
2023-03-06T02:34:38.371Z,3.05
2023-03-06T02:37:11.300Z,3.03
2023-03-06T02:39:43.609Z,3.09
2023-03-06T02:42:20.995Z,3.01
2023-03-06T02:44:49.104Z,3.10
2023-03-06T02:47:16.052Z,3.13
2023-03-06T02:49:43.275Z,3.21
2023-03-06T02:52:10.609Z,3.26
2023-03-06T02:54:39.982Z,3.36
2023-03-06T02:57:07.930Z,3.23
2023-03-06T02:59:35.560Z,3.20
2023-03-06T03:02:04.917Z,3.30
2023-03-06T03:04:34.269Z,3.13
2023-03-06T03:07:02.497Z,3.22
2023-03-06T03:09:29.782Z,3.24
2023-03-06T03:11:57.078Z,3.26
2023-03-06T03:14:25.156Z,3.24
2023-03-06T03:16:53.238Z,3.23
2023-03-06T03:19:20.557Z,3.23
2023-03-06T03:21:47.802Z,3.32
2023-03-06T03:24:15.090Z,3.35
2023-03-06T03:26:43.123Z,3.35
2023-03-06T03:29:14.729Z,3.35
2023-03-06T03:31:42.042Z,3.35
2023-03-06T03:34:09.629Z,3.35
2023-03-06T03:36:39.854Z,3.31
2023-03-06T03:39:08.982Z,3.35
2023-03-06T03:41:36.646Z,3.45
2023-03-06T03:44:07.226Z,3.38
2023-03-06T03:46:34.741Z,3.36
2023-03-06T03:49:03.253Z,3.38
2023-03-06T03:51:31.332Z,3.44
2023-03-06T03:53:59.641Z,3.38
2023-03-06T03:56:30.422Z,3.48
2023-03-06T03:59:05.391Z,3.56
2023-03-06T04:01:39.983Z,3.61
2023-03-06T04:04:08.338Z,3.60
2023-03-06T04:06:36.412Z,3.68
2023-03-06T04:09:04.840Z,3.66
2023-03-06T04:11:33.412Z,3.59
2023-03-06T04:14:01.111Z,3.67
2023-03-06T04:16:28.599Z,3.67
2023-03-06T04:18:56.329Z,3.67
2023-03-06T04:21:23.648Z,3.77
2023-03-06T04:23:50.953Z,3.78
2023-03-06T04:26:18.348Z,3.78
2023-03-06T04:28:45.841Z,3.77
2023-03-06T04:31:13.506Z,3.81
2023-03-06T04:33:40.844Z,3.84
2023-03-06T04:36:20.963Z,3.76
2023-03-06T04:38:48.472Z,3.96
2023-03-06T04:41:16.488Z,3.99
2023-03-06T04:43:44.017Z,3.95
2023-03-06T04:46:11.832Z,4.01
2023-03-06T04:48:38.940Z,3.92
2023-03-06T04:51:07.067Z,3.95
2023-03-06T04:53:34.185Z,3.75
2023-03-06T04:56:01.534Z,3.64
2023-03-06T04:58:28.574Z,3.75
2023-03-06T05:00:56.093Z,3.70
2023-03-06T05:03:23.494Z,3.66
2023-03-06T05:05:51.061Z,3.53
2023-03-06T05:08:18.436Z,3.55
2023-03-06T05:10:46.245Z,3.47
2023-03-06T05:13:13.444Z,3.39
2023-03-06T05:15:42.377Z,3.41
2023-03-06T05:18:09.653Z,3.29
2023-03-06T05:20:36.918Z,3.31
2023-03-06T05:23:04.318Z,3.28
2023-03-06T05:25:31.435Z,3.22
2023-03-06T05:27:58.899Z,3.25
2023-03-06T05:30:26.315Z,3.29
2023-03-06T05:32:53.926Z,3.19
2023-03-06T05:35:23.769Z,3.19
2023-03-06T05:37:51.351Z,3.13
2023-03-06T05:40:19.480Z,3.18
2023-03-06T05:42:46.709Z,3.19
2023-03-06T05:45:14.062Z,3.22
2023-03-06T05:47:41.447Z,3.07
2023-03-06T05:50:10.803Z,3.11
2023-03-06T05:52:40.033Z,3.08
2023-03-06T05:55:08.493Z,3.14
2023-03-06T05:57:35.640Z,3.12
2023-03-06T06:00:04.154Z,3.10
2023-03-06T06:02:39.680Z,2.96
2023-03-06T06:05:08.190Z,3.13
2023-03-06T06:07:35.599Z,3.08
2023-03-06T06:10:03.879Z,3.47
2023-03-06T06:12:31.241Z,3.55
2023-03-06T06:14:58.741Z,3.50
2023-03-06T06:17:25.992Z,3.52
2023-03-06T06:19:53.392Z,3.59
2023-03-06T06:22:20.389Z,3.90
2023-03-06T06:24:47.549Z,3.39
2023-03-06T06:27:14.607Z,3.57
2023-03-06T06:29:41.988Z,3.80
2023-03-06T06:32:09.284Z,3.43
2023-03-06T06:34:36.797Z,3.24
2023-03-06T06:37:04.229Z,3.47
2023-03-06T06:39:31.373Z,3.83
2023-03-06T06:42:20.812Z,3.86
2023-03-06T06:44:46.019Z,3.96
2023-03-06T06:47:28.406Z,3.71
2023-03-06T06:49:56.650Z,3.91
2023-03-06T06:52:25.089Z,3.84
2023-03-06T06:54:53.279Z,3.85
2023-03-06T06:57:20.692Z,3.80
2023-03-06T06:59:48.047Z,3.64
2023-03-06T07:02:16.637Z,3.74
2023-03-06T07:05:02.121Z,3.78
2023-03-06T07:07:33.306Z,4.19
2023-03-06T07:10:00.658Z,3.97
2023-03-06T07:12:27.976Z,3.75
2023-03-06T07:14:55.242Z,3.84
2023-03-06T07:17:23.019Z,4.22
2023-03-06T07:19:50.332Z,3.92
2023-03-06T07:22:17.462Z,3.89
2023-03-06T07:24:44.554Z,3.87
2023-03-06T07:27:11.709Z,4.03
2023-03-06T07:29:38.986Z,4.09
2023-03-06T07:32:06.576Z,4.02
2023-03-06T07:34:34.055Z,3.99
2023-03-06T07:37:01.186Z,4.05
2023-03-06T07:39:30.142Z,4.05
2023-03-06T07:41:58.897Z,4.30
2023-03-06T07:44:26.950Z,4.23
2023-03-06T07:46:54.567Z,4.28
2023-03-06T07:49:22.078Z,4.25
2023-03-06T07:51:49.360Z,4.45
2023-03-06T07:54:16.604Z,4.45
2023-03-06T07:56:43.993Z,4.62
2023-03-06T07:59:12.064Z,5.04
2023-03-06T08:01:40.540Z,5.10
2023-03-06T08:04:07.874Z,5.03
2023-03-06T08:06:35.472Z,5.32
2023-03-06T08:09:02.849Z,5.21
2023-03-06T08:11:31.312Z,4.78
2023-03-06T08:13:59.685Z,5.24
2023-03-06T08:16:28.942Z,5.63
2023-03-06T08:18:57.027Z,5.72
2023-03-06T08:21:26.187Z,5.78
2023-03-06T08:23:53.712Z,5.87
2023-03-06T08:26:29.455Z,5.30
2023-03-06T08:28:58.523Z,4.87
2023-03-06T08:31:27.912Z,4.88
2023-03-06T08:33:56.265Z,5.01
2023-03-06T08:36:24.219Z,4.84
2023-03-06T08:38:52.143Z,4.88
2023-03-06T08:41:20.447Z,4.81
2023-03-06T08:43:47.868Z,4.97
2023-03-06T08:46:15.259Z,5.17
2023-03-06T08:48:42.658Z,5.51
2023-03-06T08:51:10.353Z,5.64
2023-03-06T08:53:43.397Z,5.67
2023-03-06T08:56:28.871Z,5.88
2023-03-06T08:58:57.839Z,6.23
2023-03-06T09:01:27.845Z,6.60
2023-03-06T09:03:56.690Z,6.11
2023-03-06T09:06:25.355Z,6.43
2023-03-06T09:08:53.485Z,6.51
2023-03-06T09:11:21.776Z,6.98
2023-03-06T09:13:49.356Z,6.46
2023-03-06T09:16:16.756Z,6.87
2023-03-06T09:18:44.062Z,7.08
2023-03-06T09:21:12.150Z,7.25
2023-03-06T09:23:39.751Z,7.47
2023-03-06T09:26:08.135Z,7.68
2023-03-06T09:28:39.544Z,7.83
2023-03-06T09:31:17.472Z,7.94
2023-03-06T09:33:45.296Z,7.87
2023-03-06T09:36:23.379Z,7.68
2023-03-06T09:38:51.157Z,7.27
2023-03-06T09:41:25.439Z,7.18
2023-03-06T09:44:06.492Z,7.48
2023-03-06T09:46:52.194Z,7.53
2023-03-06T09:49:35.161Z,7.53
2023-03-06T09:52:21.068Z,7.44
2023-03-06T09:54:54.346Z,7.57
2023-03-06T09:57:55.515Z,7.44
2023-03-06T10:00:27.862Z,8.00
2023-03-06T10:03:19.132Z,8.17
2023-03-06T10:06:16.659Z,8.36
2023-03-06T10:08:52.220Z,8.46
2023-03-06T10:11:25.099Z,9.11
2023-03-06T10:13:59.268Z,8.95
2023-03-06T10:16:29.649Z,9.03
2023-03-06T10:19:01.877Z,9.12
2023-03-06T10:21:58.081Z,8.84
2023-03-06T10:24:34.524Z,8.97
2023-03-06T10:27:14.276Z,9.22
2023-03-06T10:30:03.313Z,8.94
2023-03-06T10:32:58.956Z,9.33
2023-03-06T10:35:45.136Z,9.15
2023-03-06T10:38:25.934Z,9.20
2023-03-06T10:41:20.784Z,8.72
2023-03-06T10:44:09.686Z,8.59
2023-03-06T10:46:45.279Z,8.40
2023-03-06T10:49:28.594Z,8.05
2023-03-06T10:52:16.043Z,7.70
2023-03-06T10:54:44.643Z,7.70
2023-03-06T10:57:27.048Z,7.47
2023-03-06T10:59:57.496Z,7.50
2023-03-06T11:02:29.348Z,7.45
2023-03-06T11:04:58.315Z,7.86
2023-03-06T11:07:28.245Z,8.20
2023-03-06T11:09:58.674Z,7.97
2023-03-06T11:13:15.083Z,7.42
2023-03-06T11:15:56.696Z,7.69
2023-03-06T11:18:44.081Z,7.58
2023-03-06T11:21:32.482Z,7.90
2023-03-06T11:24:16.081Z,7.90
2023-03-06T11:26:57.172Z,7.93
2023-03-06T11:29:43.493Z,7.96
2023-03-06T11:32:40.238Z,7.14
2023-03-06T11:35:13.520Z,6.99
2023-03-06T11:37:51.600Z,6.58
2023-03-06T11:40:51.798Z,6.59
2023-03-06T11:43:45.245Z,6.16
2023-03-06T11:46:25.759Z,5.94
2023-03-06T11:49:06.113Z,5.98
2023-03-06T11:51:36.643Z,6.15
2023-03-06T11:54:04.019Z,6.43
2023-03-06T11:56:44.545Z,6.66
2023-03-06T11:59:19.232Z,7.24
2023-03-06T12:01:46.849Z,7.55
2023-03-06T12:04:13.863Z,7.41
2023-03-06T12:06:50.128Z,7.68
2023-03-06T12:09:20.602Z,7.80
2023-03-06T12:12:06.601Z,7.79
2023-03-06T12:14:49.732Z,7.86
2023-03-06T12:17:26.445Z,8.00
2023-03-06T12:20:12.411Z,8.41
2023-03-06T12:22:57.740Z,8.38
2023-03-06T12:25:39.740Z,8.02
2023-03-06T12:28:10.001Z,7.97
2023-03-06T12:31:02.740Z,8.17
2023-03-06T12:34:04.622Z,7.75
2023-03-06T12:36:50.510Z,7.52
2023-03-06T12:39:32.405Z,7.87
2023-03-06T12:42:23.265Z,8.23
2023-03-06T12:44:56.905Z,8.24
2023-03-06T12:47:26.650Z,8.47
2023-03-06T12:49:57.739Z,8.28
2023-03-06T12:52:30.543Z,7.96
2023-03-06T12:54:59.485Z,8.12
2023-03-06T12:57:27.145Z,7.98
2023-03-06T12:59:54.924Z,8.13
2023-03-06T13:02:47.502Z,8.04
2023-03-06T13:05:14.295Z,8.22
2023-03-06T13:08:38.771Z,8.05
2023-03-06T13:11:27.844Z,7.88
2023-03-06T13:13:55.509Z,7.66
2023-03-06T13:16:33.312Z,7.91
2023-03-06T13:19:16.808Z,7.99
2023-03-06T13:21:55.809Z,7.82
2023-03-06T13:24:26.727Z,7.60
2023-03-06T13:27:02.534Z,7.74
2023-03-06T13:29:38.913Z,7.69
2023-03-06T13:32:14.484Z,7.76
2023-03-06T13:34:43.028Z,7.74
2023-03-06T13:37:25.275Z,7.93
2023-03-06T13:39:55.290Z,7.82
2023-03-06T13:42:37.073Z,7.99
2023-03-06T13:45:08.070Z,7.73
2023-03-06T13:48:33.598Z,7.76
2023-03-06T13:50:47.167Z,7.67
2023-03-06T13:53:40.862Z,7.82
2023-03-06T13:56:37.566Z,7.69
2023-03-06T13:59:14.292Z,7.76
2023-03-06T14:02:14.481Z,7.31
2023-03-06T14:04:55.242Z,7.40
2023-03-06T14:07:31.029Z,7.08
2023-03-06T14:10:23.167Z,6.97
2023-03-06T14:12:50.303Z,6.83
2023-03-06T14:15:37.297Z,6.25
2023-03-06T14:18:06.453Z,5.88
2023-03-06T14:20:39.257Z,5.83
2023-03-06T14:23:16.583Z,5.56
2023-03-06T14:25:45.203Z,5.43
2023-03-06T14:28:27.520Z,5.76
2023-03-06T14:30:56.107Z,5.80
2023-03-06T14:33:37.978Z,5.69
2023-03-06T14:36:09.341Z,5.53
2023-03-06T14:38:45.190Z,5.31
2023-03-06T14:41:14.073Z,5.35
2023-03-06T14:43:41.340Z,5.65
2023-03-06T14:46:19.213Z,5.73
2023-03-06T14:48:47.815Z,5.84
2023-03-06T14:51:21.175Z,5.96
2023-03-06T14:53:49.839Z,6.13
2023-03-06T14:56:24.888Z,5.89
2023-03-06T14:58:52.721Z,5.82
2023-03-06T15:01:32.897Z,5.64
2023-03-06T15:04:00.898Z,5.80
2023-03-06T15:06:33.329Z,5.84
2023-03-06T15:09:24.798Z,5.78
2023-03-06T15:12:08.148Z,5.87
2023-03-06T15:14:42.174Z,5.94
2023-03-06T15:17:18.777Z,5.84
2023-03-06T15:19:48.877Z,5.91
2023-03-06T15:22:35.907Z,5.75
2023-03-06T15:25:21.610Z,5.71
2023-03-06T15:27:53.283Z,5.69
2023-03-06T15:30:27.948Z,5.60
2023-03-06T15:33:20.437Z,5.52
2023-03-06T15:36:17.954Z,5.46
2023-03-06T15:38:46.354Z,5.52
2023-03-06T15:41:42.103Z,5.32
2023-03-06T15:44:12.198Z,5.37
2023-03-06T15:46:39.741Z,5.31
2023-03-06T15:49:14.781Z,5.28
2023-03-06T15:51:43.619Z,5.29
2023-03-06T15:54:12.877Z,5.34
2023-03-06T15:56:42.360Z,5.39
2023-03-06T15:59:17.087Z,5.48
2023-03-06T16:01:44.451Z,5.36
2023-03-06T16:04:11.961Z,5.23
2023-03-06T16:06:38.933Z,5.31
2023-03-06T16:09:06.345Z,5.10
2023-03-06T16:11:43.362Z,5.03
2023-03-06T16:14:24.088Z,4.97
2023-03-06T16:16:54.451Z,5.00
2023-03-06T16:19:26.429Z,5.10
2023-03-06T16:21:55.388Z,5.06
2023-03-06T16:24:22.680Z,5.14
2023-03-06T16:26:51.075Z,4.93
2023-03-06T16:29:19.563Z,5.07
2023-03-06T16:31:46.588Z,4.93
2023-03-06T16:34:13.552Z,4.95
2023-03-06T16:36:40.421Z,4.88
2023-03-06T16:39:13.572Z,4.79
2023-03-06T16:41:40.415Z,4.79
2023-03-06T16:44:07.880Z,4.74
2023-03-06T16:46:37.687Z,4.69
2023-03-06T16:49:04.658Z,4.69
2023-03-06T16:51:31.994Z,4.48
2023-03-06T16:53:59.044Z,4.47
2023-03-06T16:56:31.592Z,4.38
2023-03-06T16:59:00.636Z,4.38
2023-03-06T17:01:27.903Z,4.25
2023-03-06T17:03:55.195Z,4.28
2023-03-06T17:06:23.367Z,4.15
2023-03-06T17:08:51.306Z,4.27
2023-03-06T17:11:20.571Z,4.16
2023-03-06T17:13:48.634Z,4.12
2023-03-06T17:16:16.689Z,4.15
2023-03-06T17:18:45.621Z,4.18
2023-03-06T17:21:17.640Z,4.23
2023-03-06T17:23:45.151Z,4.19
2023-03-06T17:26:13.919Z,4.10
2023-03-06T17:28:41.703Z,4.06
2023-03-06T17:31:20.347Z,4.11
2023-03-06T17:33:48.751Z,3.97
2023-03-06T17:36:16.764Z,3.93
2023-03-06T17:38:44.709Z,3.94
2023-03-06T17:41:12.523Z,3.98
2023-03-06T17:43:39.852Z,4.00
2023-03-06T17:46:12.756Z,3.93
2023-03-06T17:48:40.807Z,3.90
2023-03-06T17:51:08.066Z,4.02
2023-03-06T17:53:35.976Z,3.98
2023-03-06T17:56:05.643Z,4.03
2023-03-06T17:58:33.223Z,3.99
2023-03-06T18:01:01.116Z,4.03
2023-03-06T18:03:28.397Z,3.88
2023-03-06T18:06:02.152Z,3.96
2023-03-06T18:08:29.702Z,3.97
2023-03-06T18:11:01.080Z,3.94
2023-03-06T18:13:28.494Z,3.87
2023-03-06T18:15:55.780Z,3.88
2023-03-06T18:18:24.456Z,3.84
2023-03-06T18:20:51.962Z,3.97
2023-03-06T18:23:19.361Z,3.98
2023-03-06T18:25:46.862Z,3.92
2023-03-06T18:28:14.172Z,3.97
2023-03-06T18:30:42.752Z,4.07
2023-03-06T18:33:10.735Z,3.99
2023-03-06T18:35:38.074Z,4.06
2023-03-06T18:38:05.719Z,4.08
2023-03-06T18:40:32.971Z,3.95
2023-03-06T18:43:00.084Z,3.91
2023-03-06T18:45:27.515Z,3.99
2023-03-06T18:47:55.205Z,4.07
2023-03-06T18:50:22.545Z,4.02
2023-03-06T18:52:49.973Z,4.01
2023-03-06T18:55:17.504Z,4.04
2023-03-06T19:24:01.436Z,4.10
2023-03-06T19:26:28.399Z,4.18
2023-03-06T19:28:55.090Z,4.28
2023-03-06T19:31:27.156Z,4.18
2023-03-06T19:39:16.595Z,4.16
2023-03-06T19:41:43.431Z,4.35
2023-03-06T19:44:10.114Z,4.34
2023-03-06T19:46:37.745Z,4.41
2023-03-06T19:53:17.257Z,4.61
2023-03-06T19:55:44.203Z,4.66
2023-03-06T19:58:11.385Z,4.58
2023-03-06T20:00:38.556Z,4.68
2023-03-06T20:07:18.281Z,4.67
2023-03-06T20:09:45.204Z,4.69
2023-03-06T20:12:12.559Z,4.73
2023-03-06T20:14:39.254Z,4.72
2023-03-06T20:21:25.882Z,4.95
2023-03-06T20:23:53.915Z,4.93
2023-03-06T20:26:21.053Z,4.97
2023-03-06T20:28:47.935Z,5.03
2023-03-06T20:31:19.972Z,5.06
2023-03-06T20:33:49.355Z,5.13
2023-03-06T20:36:18.302Z,5.09
2023-03-06T20:38:45.022Z,5.20
2023-03-06T20:41:20.380Z,5.24
2023-03-06T20:43:49.234Z,5.36
2023-03-06T20:46:16.229Z,5.10
2023-03-06T20:48:43.662Z,4.90
2023-03-06T20:51:17.812Z,4.72
2023-03-06T20:53:44.594Z,4.51
2023-03-06T20:56:12.905Z,4.42
2023-03-06T20:58:39.703Z,4.36
2023-03-06T21:01:06.429Z,4.26
2023-03-06T21:03:33.040Z,4.22
2023-03-06T21:05:59.794Z,4.23
2023-03-06T21:08:26.934Z,4.27
2023-03-06T21:10:53.944Z,4.22
2023-03-06T21:13:20.829Z,4.23
2023-03-06T21:15:47.788Z,4.28
2023-03-06T21:18:14.630Z,4.22
2023-03-06T21:20:41.702Z,4.28
2023-03-06T21:23:09.353Z,4.24
2023-03-06T21:25:36.714Z,4.29
2023-03-06T21:28:03.540Z,4.25
2023-03-06T21:30:30.297Z,4.28
2023-03-06T21:32:57.112Z,4.29
2023-03-06T21:35:23.778Z,4.35
2023-03-06T21:37:50.506Z,4.33
2023-03-06T21:40:17.306Z,4.33
2023-03-06T21:42:44.203Z,4.32
2023-03-06T21:45:11.100Z,4.48
2023-03-06T21:47:38.892Z,4.45
2023-03-06T21:50:07.714Z,4.53
2023-03-06T21:52:34.386Z,4.67
2023-03-06T21:55:01.199Z,4.63
2023-03-06T21:57:27.911Z,4.61
2023-03-06T21:59:54.674Z,4.68
2023-03-06T22:02:23.888Z,4.71
2023-03-06T22:04:52.527Z,4.83
2023-03-06T22:07:20.267Z,4.69
2023-03-06T22:09:47.263Z,4.73
2023-03-06T22:12:14.474Z,4.78
2023-03-06T22:14:51.320Z,4.72
2023-03-06T22:17:26.859Z,4.78
2023-03-06T22:19:56.196Z,4.87
2023-03-06T22:22:23.029Z,4.82
2023-03-06T22:24:49.813Z,4.87
2023-03-06T22:27:16.909Z,4.85
2023-03-06T22:29:43.606Z,4.85
2023-03-06T22:32:10.401Z,4.90
2023-03-06T22:34:37.124Z,4.86
2023-03-06T22:37:04.229Z,4.91
2023-03-06T22:39:31.031Z,4.94
2023-03-06T22:41:58.313Z,4.94
2023-03-06T22:44:25.199Z,5.03
2023-03-06T22:46:52.151Z,5.06
2023-03-06T22:49:19.102Z,4.95
2023-03-06T22:51:45.694Z,5.03
2023-03-06T22:54:12.626Z,5.03
2023-03-06T22:56:40.656Z,5.01
2023-03-06T22:59:07.576Z,5.15
2023-03-06T23:01:34.899Z,5.08
2023-03-06T23:04:04.196Z,5.06
2023-03-06T23:06:33.144Z,5.09
2023-03-06T23:09:09.681Z,5.13
2023-03-06T23:11:54.938Z,5.10
2023-03-06T23:14:40.374Z,5.16
2023-03-06T23:17:26.088Z,5.08
2023-03-06T23:20:13.389Z,5.16
2023-03-06T23:22:58.949Z,5.18
2023-03-06T23:25:40.771Z,5.16
2023-03-06T23:28:07.783Z,5.18
2023-03-06T23:30:34.584Z,5.06
2023-03-06T23:33:01.349Z,5.13
2023-03-06T23:35:28.052Z,5.04
2023-03-06T23:37:54.695Z,5.00
2023-03-06T23:40:22.075Z,5.00
2023-03-06T23:42:48.768Z,4.95
2023-03-06T23:45:15.740Z,4.98
2023-03-06T23:47:42.443Z,4.99
2023-03-06T23:50:09.882Z,5.06
2023-03-06T23:52:37.652Z,4.98
2023-03-06T23:55:05.696Z,5.00
2023-03-06T23:57:32.568Z,5.08
2023-03-06T23:59:59.275Z,5.06
